Terminal Aerodrome Forecast
Issued by NWS Pueblo, CO

Current Version | Previous Version | Text Only | Print | Product List | Glossary On
Versions: 1 2 3 4 5 6 7 8 9 10 11 12 13 14 15 16 17 18 19 20
000
FTUS45 KPUB 030520
TAFPUB
TAF
KPUB 030520Z 0306/0406 33005KT P6SM SCT150
     FM031200 36015G25KT P6SM FEW080 SCT150
     FM031800 35015KT P6SM FEW250
     FM040200 35007KT P6SM FEW250=

USA.gov is the U.S. government's official web portal to all federal, state and local government web resources and services.